Time;durP1;ratioP1;P1;durP2;ratioP2;P2;SDS_P1;SDS_P2;PMS_P1;PMS_P2;Temp;Humidity;BMP_temperature;BMP_pressure;BME280_temperature;BME280_humidity;BME280_pressure;Samples;Min_cycle;Max_cycle;Signal;HPM_P1;HPM_P2
2022/07/21 00:03:26;;;;;;;17.38;12.95;;;;;;;20.76;100.00;100781.09;8320170;28;20504;-59
2022/07/21 00:07:27;;;;;;;19.83;13.23;;;;;;;20.65;100.00;100789.91;8320336;28;20048;-60
2022/07/21 00:11:27;;;;;;;18.27;13.02;;;;;;;20.65;100.00;100784.41;8320965;28;20041;-59
2022/07/21 00:15:28;;;;;;;20.05;14.20;;;;;;;20.66;100.00;100791.59;8320991;28;20060;-60
2022/07/21 00:19:29;;;;;;;21.80;13.98;;;;;;;20.44;100.00;100777.06;8321152;28;20045;-59
2022/07/21 00:23:29;;;;;;;20.58;14.45;;;;;;;20.23;100.00;100787.19;8321269;28;20045;-59
2022/07/21 00:27:30;;;;;;;25.77;15.77;;;;;;;20.16;100.00;100783.53;8316853;28;20033;-58
2022/07/21 00:31:30;;;;;;;29.50;17.58;;;;;;;20.18;100.00;100786.91;8317884;28;20502;-60
2022/07/21 00:35:31;;;;;;;25.98;17.33;;;;;;;20.25;100.00;100782.38;8319316;28;20387;-60
2022/07/21 00:39:31;;;;;;;22.83;16.92;;;;;;;20.43;100.00;100783.56;8319987;28;20045;-60
2022/07/21 00:43:32;;;;;;;26.10;17.20;;;;;;;20.44;100.00;100792.69;8320678;28;20469;-60
2022/07/21 00:47:33;;;;;;;24.65;17.10;;;;;;;20.23;100.00;100789.94;8320310;28;20033;-60
2022/07/21 00:51:33;;;;;;;24.38;16.05;;;;;;;20.08;100.00;100795.47;8319719;28;20087;-60
2022/07/21 00:55:34;;;;;;;24.13;16.77;;;;;;;20.15;100.00;100798.28;8316359;28;20115;-60
2022/07/21 00:59:35;;;;;;;23.60;16.58;;;;;;;20.22;100.00;100805.56;8319346;28;20303;-60
2022/07/21 01:03:37;;;;;;;24.17;16.98;;;;;;;20.26;100.00;100803.28;8319573;28;20037;-60
2022/07/21 01:07:37;;;;;;;24.20;17.40;;;;;;;20.27;100.00;100811.31;8319682;28;20498;-61
2022/07/21 01:11:39;;;;;;;25.50;16.35;;;;;;;20.14;100.00;100813.06;8320286;28;20413;-61
2022/07/21 01:15:39;;;;;;;24.30;17.20;;;;;;;20.15;100.00;100803.78;8319131;28;20041;-61
2022/07/21 01:19:39;;;;;;;27.20;16.77;;;;;;;20.26;100.00;100797.78;8319960;28;20038;-60
2022/07/21 01:23:40;;;;;;;22.58;15.65;;;;;;;20.29;100.00;100800.13;8319608;28;20084;-60
2022/07/21 01:27:40;;;;;;;22.20;16.30;;;;;;;20.36;100.00;100795.53;8318733;28;20029;-60
2022/07/21 01:31:44;;;;;;;23.77;15.52;;;;;;;20.27;100.00;100814.06;8318747;28;20776;-60
2022/07/21 01:35:46;;;;;;;18.77;15.30;;;;;;;20.38;100.00;100815.44;8318686;28;20049;-60
2022/07/21 01:44:11;;;;;;;20.77;14.68;;;;;;;20.37;100.00;100813.75;8319129;28;20561;-60
2022/07/21 01:48:11;;;;;;;17.08;13.57;;;;;;;20.41;100.00;100820.53;8316981;28;20048;-60
2022/07/21 01:52:12;;;;;;;20.67;13.35;;;;;;;20.51;100.00;100821.03;8318948;28;20125;-60
2022/07/21 01:56:12;;;;;;;17.70;13.13;;;;;;;20.49;100.00;100823.16;8318736;28;20082;-60
2022/07/21 02:00:13;;;;;;;16.52;10.68;;;;;;;20.59;100.00;100834.66;8318920;28;20284;-60
2022/07/21 02:04:13;;;;;;;12.18;9.75;;;;;;;20.60;100.00;100825.38;8318944;28;20060;-60
2022/07/21 02:08:14;;;;;;;15.98;9.65;;;;;;;20.76;100.00;100830.56;8318928;28;20045;-61
2022/07/21 02:12:14;;;;;;;11.02;9.20;;;;;;;20.80;100.00;100831.91;8318582;28;20041;-61
2022/07/21 02:16:15;;;;;;;12.23;9.57;;;;;;;20.77;100.00;100838.63;8320870;28;20057;-61
2022/07/21 02:20:15;;;;;;;17.35;9.75;;;;;;;20.75;100.00;100837.97;8325086;28;20287;-61
2022/07/21 02:24:16;;;;;;;12.23;9.55;;;;;;;20.60;100.00;100830.84;8322913;28;20072;-61
2022/07/21 02:28:16;;;;;;;12.70;8.95;;;;;;;20.40;100.00;100824.34;8324762;28;20060;-60
2022/07/21 02:32:17;;;;;;;14.05;9.88;;;;;;;20.26;100.00;100817.00;8324771;28;20148;-60
2022/07/21 02:36:17;;;;;;;14.30;10.48;;;;;;;20.22;100.00;100811.03;8324161;28;20501;-60
2022/07/21 02:40:18;;;;;;;14.25;10.23;;;;;;;20.09;100.00;100812.75;8322999;28;20140;-59
2022/07/21 02:44:18;;;;;;;15.23;9.68;;;;;;;20.06;100.00;100815.94;8323980;28;20048;-59
2022/07/21 02:48:19;;;;;;;16.87;9.33;;;;;;;19.90;100.00;100816.13;8323479;28;20049;-60
2022/07/21 02:52:19;;;;;;;15.85;10.95;;;;;;;19.94;100.00;100809.25;8323498;28;20308;-61
2022/07/21 02:56:20;;;;;;;17.77;11.60;;;;;;;20.03;100.00;100799.84;8323285;28;20041;-60
2022/07/21 03:00:20;;;;;;;19.60;11.50;;;;;;;20.11;100.00;100792.31;8322558;28;20268;-62
2022/07/21 03:04:20;;;;;;;14.48;11.80;;;;;;;19.92;100.00;100792.09;8323430;28;20140;-61
2022/07/21 03:08:22;;;;;;;16.83;11.70;;;;;;;19.86;100.00;100787.41;8323412;28;20044;-61
2022/07/21 03:12:22;;;;;;;13.82;11.13;;;;;;;19.81;100.00;100784.38;8323112;28;20326;-60
2022/07/21 03:16:23;;;;;;;18.27;12.00;;;;;;;19.81;100.00;100795.34;8322058;28;20037;-60
2022/07/21 03:20:25;;;;;;;17.08;10.75;;;;;;;19.75;100.00;100790.63;8321310;28;20621;-59
2022/07/21 03:24:26;;;;;;;14.35;11.30;;;;;;;19.78;100.00;100791.09;8323336;28;20512;-59
2022/07/21 03:28:26;;;;;;;17.88;12.02;;;;;;;19.79;100.00;100786.47;8321999;28;20387;-60
2022/07/21 03:32:27;;;;;;;17.48;12.82;;;;;;;19.86;100.00;100788.25;8323152;28;20042;-60
2022/07/21 03:36:27;;;;;;;20.60;13.90;;;;;;;19.86;100.00;100784.66;8322375;28;20038;-60
2022/07/21 03:40:31;;;;;;;20.27;13.57;;;;;;;19.87;100.00;100775.34;8321834;28;21063;-60
2022/07/21 03:44:32;;;;;;;19.15;13.23;;;;;;;19.82;100.00;100780.59;8322105;28;20038;-60
2022/07/21 03:48:32;;;;;;;21.80;12.77;;;;;;;19.76;100.00;100786.88;8321119;28;20037;-60
2022/07/21 03:52:33;;;;;;;18.38;13.80;;;;;;;19.77;100.00;100783.06;8321280;28;20383;-60
2022/07/21 03:56:33;;;;;;;21.40;13.75;;;;;;;19.82;100.00;100780.59;8319592;28;20044;-60
2022/07/21 04:00:38;;;;;;;17.42;12.20;;;;;;;19.78;100.00;100784.75;8321387;28;20041;-60
2022/07/21 04:04:38;;;;;;;17.13;13.13;;;;;;;19.80;100.00;100782.69;8319377;28;20045;-60
2022/07/21 04:08:39;;;;;;;19.27;13.45;;;;;;;19.79;100.00;100770.00;8320750;28;20049;-60
2022/07/21 04:12:39;;;;;;;19.77;12.05;;;;;;;19.91;100.00;100776.69;8321539;28;20049;-60
2022/07/21 04:16:40;;;;;;;19.92;11.70;;;;;;;19.98;100.00;100770.22;8319931;28;20103;-60
2022/07/21 04:20:40;;;;;;;16.65;10.95;;;;;;;20.01;100.00;100771.72;8320797;28;20037;-60
2022/07/21 04:24:41;;;;;;;16.15;10.63;;;;;;;20.00;100.00;100778.28;8321370;28;20041;-60
2022/07/21 04:28:42;;;;;;;18.10;12.07;;;;;;;20.14;100.00;100774.63;8318758;28;20037;-60
2022/07/21 04:32:43;;;;;;;17.05;11.35;;;;;;;20.12;100.00;100773.94;8321009;28;20055;-60
2022/07/21 04:36:43;;;;;;;14.35;10.98;;;;;;;20.21;100.00;100786.53;8320871;28;20175;-59
2022/07/21 04:40:44;;;;;;;20.07;12.97;;;;;;;20.28;100.00;100787.47;8320356;28;20030;-60
2022/07/21 04:44:44;;;;;;;20.27;12.05;;;;;;;20.22;100.00;100785.50;8319065;28;20295;-60
2022/07/21 04:48:44;;;;;;;13.90;10.98;;;;;;;20.36;100.00;100801.91;8320338;28;20040;-59
2022/07/21 04:52:46;;;;;;;19.30;13.50;;;;;;;20.33;100.00;100802.28;8320364;28;20406;-59
2022/07/21 04:56:46;;;;;;;20.15;12.95;;;;;;;20.49;100.00;100801.19;8319581;28;20461;-59
2022/07/21 05:00:47;;;;;;;17.70;10.85;;;;;;;20.71;100.00;100811.09;8318217;28;20068;-59
2022/07/21 05:04:47;;;;;;;12.52;10.63;;;;;;;20.71;100.00;100817.44;8317577;28;20079;-59
2022/07/21 05:08:47;;;;;;;16.42;10.15;;;;;;;20.62;100.00;100818.59;8318008;28;20051;-59
2022/07/21 05:12:48;;;;;;;21.42;10.80;;;;;;;20.44;100.00;100810.03;8319485;28;20472;-59
2022/07/21 05:16:48;;;;;;;18.37;11.40;;;;;;;20.40;100.00;100813.34;8318836;28;20118;-59
2022/07/21 05:20:49;;;;;;;14.00;10.60;;;;;;;20.32;100.00;100806.09;8319650;28;20274;-59
2022/07/21 05:24:49;;;;;;;18.92;10.70;;;;;;;20.28;100.00;100809.44;8317594;28;20130;-59
2022/07/21 05:28:49;;;;;;;12.15;8.73;;;;;;;20.08;100.00;100814.69;8318024;28;20033;-59
2022/07/21 05:32:50;;;;;;;9.40;7.55;;;;;;;19.92;100.00;100808.56;8312783;28;20053;-59
2022/07/21 05:36:50;;;;;;;8.90;6.85;;;;;;;19.86;100.00;100804.72;8319185;28;20061;-59
2022/07/21 05:40:51;;;;;;;7.57;5.03;;;;;;;19.96;100.00;100810.75;8316563;28;20042;-59
2022/07/21 05:44:51;;;;;;;5.10;4.18;;;;;;;19.98;100.00;100819.63;8313081;28;20292;-59
2022/07/21 05:48:54;;;;;;;6.07;3.80;;;;;;;20.00;100.00;100824.94;8341941;28;20037;-59
2022/07/21 05:52:54;;;;;;;6.70;3.78;;;;;;;20.06;100.00;100835.16;8326332;28;20037;-59
2022/07/21 05:56:54;;;;;;;7.47;3.87;;;;;;;20.03;100.00;100827.28;8323030;28;20042;-59
2022/07/21 06:01:26;;;;;;;6.78;3.47;;;;;;;19.92;100.00;100809.44;8316753;28;20277;-59
2022/07/21 06:05:16;;;;;;;4.28;3.10;;;;;;;19.93;100.00;100807.53;8348989;28;20033;-59
2022/07/21 06:09:16;;;;;;;6.95;3.13;;;;;;;19.96;100.00;100809.88;8323902;28;20046;-59
2022/07/21 06:13:16;;;;;;;3.47;2.93;;;;;;;20.02;100.00;100809.97;8322444;28;20099;-59
2022/07/21 06:17:17;;;;;;;4.63;3.13;;;;;;;20.42;100.00;100816.72;8322082;28;20095;-59
2022/07/21 06:21:18;;;;;;;4.82;3.50;;;;;;;20.97;100.00;100819.56;8323937;28;20284;-59
2022/07/21 06:25:20;;;;;;;5.68;3.53;;;;;;;20.99;100.00;100810.09;8324010;28;20033;-59
2022/07/21 06:29:22;;;;;;;7.55;3.80;;;;;;;21.10;100.00;100812.25;8323717;28;20037;-59
2022/07/21 06:33:22;;;;;;;4.65;3.10;;;;;;;21.25;100.00;100814.88;8324296;28;20065;-59
2022/07/21 06:37:23;;;;;;;4.18;3.20;;;;;;;21.61;100.00;100807.25;8324673;28;20040;-59
2022/07/21 06:41:23;;;;;;;4.68;3.42;;;;;;;22.01;100.00;100806.38;8324313;28;20500;-59
2022/07/21 06:45:24;;;;;;;4.57;3.70;;;;;;;22.42;98.75;100804.34;8322955;28;20508;-59
2022/07/21 06:49:24;;;;;;;5.22;3.90;;;;;;;22.37;97.82;100806.91;8322568;28;20069;-59
2022/07/21 06:53:25;;;;;;;4.53;4.10;;;;;;;22.75;97.60;100808.00;8321636;28;20129;-59
2022/07/21 06:57:25;;;;;;;7.00;4.15;;;;;;;23.32;94.15;100809.25;8335547;28;20681;-58
2022/07/21 07:01:26;;;;;;;5.97;5.13;;;;;;;23.60;93.21;100818.91;8321238;28;20037;-59
2022/07/21 07:05:28;;;;;;;6.07;4.93;;;;;;;23.56;91.13;100814.03;8321413;28;20138;-59
2022/07/21 07:09:28;;;;;;;6.20;4.95;;;;;;;23.39;92.32;100821.13;8322922;28;20087;-59
2022/07/21 07:13:29;;;;;;;5.63;5.10;;;;;;;23.80;91.21;100816.94;8322177;28;20041;-59
2022/07/21 07:17:29;;;;;;;6.18;4.55;;;;;;;23.78;88.88;100824.59;8319999;28;20041;-57
2022/07/21 07:21:30;;;;;;;5.95;5.32;;;;;;;23.39;90.91;100812.84;8322419;28;20041;-58
2022/07/21 07:25:31;;;;;;;6.70;5.55;;;;;;;23.38;93.17;100816.66;8320055;28;20076;-58
2022/07/21 07:29:32;;;;;;;6.03;5.43;;;;;;;24.09;89.84;100815.56;8322853;28;20093;-58
2022/07/21 07:33:32;;;;;;;7.13;5.22;;;;;;;24.25;87.97;100820.56;8321097;28;20049;-58
2022/07/21 07:37:35;;;;;;;5.90;5.03;;;;;;;24.26;86.60;100822.25;8314472;28;20067;-58
2022/07/21 07:41:36;;;;;;;6.75;4.90;;;;;;;24.41;85.35;100826.41;8322090;28;20390;-58
2022/07/21 07:45:36;;;;;;;8.55;5.22;;;;;;;24.63;85.92;100824.13;8320340;28;20049;-58
2022/07/21 07:49:37;;;;;;;7.75;4.80;;;;;;;25.26;82.42;100825.72;8309948;28;20048;-58
2022/07/21 07:53:38;;;;;;;6.15;5.05;;;;;;;25.65;78.31;100814.25;8317413;28;20052;-58
2022/07/21 07:57:40;;;;;;;6.38;4.78;;;;;;;25.48;74.67;100817.84;8317115;28;20041;-58
2022/07/21 08:01:41;;;;;;;8.02;5.38;;;;;;;25.07;78.48;100832.31;8318531;28;20043;-58
2022/07/21 08:05:42;;;;;;;6.90;5.35;;;;;;;25.40;76.43;100830.06;8319560;28;20045;-58
2022/07/21 08:09:42;;;;;;;5.68;4.88;;;;;;;25.42;74.88;100832.59;8317831;28;20049;-58
2022/07/21 08:13:43;;;;;;;7.13;4.83;;;;;;;26.13;74.59;100828.97;8316538;28;20053;-58
2022/07/21 08:17:43;;;;;;;7.05;4.60;;;;;;;26.06;71.27;100833.78;8317393;28;20676;-58
2022/07/21 08:21:44;;;;;;;8.43;5.07;;;;;;;26.00;73.18;100822.78;8318052;28;20050;-58
2022/07/21 08:25:44;;;;;;;8.15;5.00;;;;;;;26.39;72.62;100813.91;8314715;28;20407;-57
2022/07/21 08:29:46;;;;;;;9.10;5.18;;;;;;;26.42;70.78;100817.06;8310890;28;20049;-58
2022/07/21 08:33:46;;;;;;;7.07;5.22;;;;;;;26.48;71.38;100834.69;8312369;28;20391;-58
2022/07/21 08:37:59;;;;;;;10.15;4.43;;;;;;;26.26;70.29;100834.34;8312190;28;20045;-57
2022/07/21 08:42:00;;;;;;;10.10;4.90;;;;;;;25.66;70.37;100827.00;8313141;28;20122;-57
2022/07/21 08:46:01;;;;;;;6.70;5.07;;;;;;;25.59;72.59;100845.66;8312548;28;20049;-58
2022/07/21 08:50:02;;;;;;;8.18;5.00;;;;;;;25.60;70.50;100827.94;8313660;28;20076;-58
2022/07/21 08:54:04;;;;;;;6.20;4.50;;;;;;;25.57;69.92;100845.00;8312490;28;20514;-58
2022/07/21 08:58:08;;;;;;;5.85;3.85;;;;;;;25.37;69.25;100844.38;8311781;28;20452;-58
2022/07/21 09:02:28;;;;;;;6.70;4.18;;;;;;;25.40;69.41;100837.53;8310305;28;20048;-58
2022/07/21 09:06:29;;;;;;;4.00;3.70;;;;;;;25.28;69.41;100845.69;8312861;28;20041;-58
2022/07/21 09:10:31;;;;;;;6.10;4.23;;;;;;;25.37;70.17;100844.38;8311299;28;20068;-58
2022/07/21 09:14:33;;;;;;;7.78;4.10;;;;;;;25.20;70.32;100843.25;8311822;28;20363;-58
2022/07/21 09:18:34;;;;;;;6.35;4.82;;;;;;;25.22;71.28;100845.78;8315641;28;20516;-57
2022/07/21 09:22:34;;;;;;;8.98;4.38;;;;;;;25.35;70.14;100846.53;8312992;28;20037;-57
2022/07/21 09:26:59;;;;;;;5.82;4.35;;;;;;;25.85;68.97;100841.69;8310216;28;20625;-58
2022/07/21 09:31:04;;;;;;;3.83;3.42;;;;;;;26.02;67.29;100849.19;8311657;28;20120;-58
2022/07/21 09:35:09;;;;;;;7.10;3.90;;;;;;;26.32;66.41;100838.94;8310716;28;20052;-57
2022/07/21 09:39:11;;;;;;;5.50;3.58;;;;;;;26.26;66.49;100839.88;8308243;28;20057;-57
2022/07/21 09:43:11;;;;;;;6.18;3.85;;;;;;;25.74;67.15;100846.06;8309129;28;20144;-57
2022/07/21 09:47:14;;;;;;;4.83;3.17;;;;;;;26.39;66.07;100841.63;8309343;28;20529;-58
2022/07/21 09:51:32;;;;;;;5.00;3.55;;;;;;;26.94;65.16;100847.84;8301700;28;20268;-57
2022/07/21 09:55:32;;;;;;;7.00;3.65;;;;;;;27.09;63.60;100840.75;8300509;28;20091;-58
2022/07/21 09:59:33;;;;;;;5.70;3.57;;;;;;;26.80;64.62;100842.50;8302472;28;20116;-57
2022/07/21 10:03:33;;;;;;;5.47;3.75;;;;;;;26.10;65.72;100840.53;8304534;28;20512;-57
2022/07/21 10:07:37;;;;;;;6.68;3.97;;;;;;;25.41;65.81;100855.84;8300529;28;20107;-56
2022/07/21 10:11:40;;;;;;;7.25;4.43;;;;;;;24.95;68.14;100850.72;8305628;28;21245;-57
2022/07/21 10:15:41;;;;;;;5.27;3.97;;;;;;;24.88;68.86;100856.28;8306355;28;20206;-58
2022/07/21 10:19:56;;;;;;;10.93;4.20;;;;;;;24.75;70.97;100856.41;8296839;28;20046;-58
2022/07/21 10:23:57;;;;;;;5.65;4.45;;;;;;;24.86;71.54;100858.44;8297378;28;20072;-58
2022/07/21 10:28:18;;;;;;;8.05;4.82;;;;;;;24.57;74.62;100866.50;8301260;28;20561;-57
2022/07/21 10:32:21;;;;;;;10.05;5.75;;;;;;;24.38;78.03;100873.84;8300978;28;20580;-57
2022/07/21 10:40:42;;;;;;;11.02;5.68;;;;;;;24.27;79.05;100876.44;8322640;28;20936;-57
2022/07/21 10:44:45;;;;;;;8.15;6.28;;;;;;;24.11;79.17;100879.72;8319479;28;20553;-57
2022/07/21 10:48:47;;;;;;;11.93;6.68;;;;;;;23.75;82.03;100879.44;8315319;28;20041;-57
2022/07/21 10:57:27;;;;;;;13.00;7.32;;;;;;;22.96;91.40;100890.53;8390971;27;20389;-57
2022/07/21 11:01:28;;;;;;;11.40;8.32;;;;;;;22.97;95.29;100886.69;8396869;28;20064;-57
2022/07/21 11:05:33;;;;;;;12.23;8.38;;;;;;;22.85;95.81;100887.56;8402259;28;20052;-57
2022/07/21 11:09:33;;;;;;;12.45;8.05;;;;;;;22.58;98.55;100888.56;8409096;28;20040;-58
2022/07/21 11:14:09;;;;;;;12.53;8.47;;;;;;;22.19;99.98;100903.06;8406486;28;20516;-58
2022/07/21 11:18:10;;;;;;;17.80;10.18;;;;;;;21.62;100.00;100916.28;8381561;28;20301;-59
2022/07/21 11:22:20;;;;;;;16.40;11.40;;;;;;;21.26;100.00;100910.13;8394191;28;20060;-61
2022/07/21 11:26:25;;;;;;;19.38;12.65;;;;;;;20.95;100.00;100912.41;8398113;27;20028;-61
2022/07/21 11:30:25;;;;;;;25.95;13.93;;;;;;;20.67;100.00;100905.94;8391544;27;20199;-61
2022/07/21 11:34:37;;;;;;;23.88;13.60;;;;;;;20.68;100.00;100908.50;8399297;28;20058;-61
2022/07/21 11:38:56;;;;;;;20.58;14.93;;;;;;;20.71;100.00;100913.59;8396094;28;20067;-62
2022/07/21 11:42:57;;;;;;;20.02;14.93;;;;;;;20.77;100.00;100914.75;8406676;28;20550;-62
2022/07/21 11:47:00;;;;;;;19.27;15.45;;;;;;;20.78;100.00;100917.28;8405787;28;20040;-61
2022/07/21 11:51:02;;;;;;;19.67;15.15;;;;;;;20.87;100.00;100910.63;8411368;28;20051;-61
2022/07/21 11:55:05;;;;;;;21.67;15.15;;;;;;;20.90;100.00;100909.34;8411484;28;20054;-62
2022/07/21 11:59:10;;;;;;;19.58;14.25;;;;;;;21.06;100.00;100903.59;8407451;28;20436;-61
2022/07/21 12:03:12;;;;;;;21.33;14.40;;;;;;;20.99;100.00;100905.47;8406877;28;20390;-61
2022/07/21 12:07:24;;;;;;;18.45;13.75;;;;;;;20.95;100.00;100904.16;8389736;28;20071;-61
2022/07/21 12:11:35;;;;;;;19.80;14.02;;;;;;;20.98;100.00;100912.00;8380925;28;20036;-61
2022/07/21 12:15:37;;;;;;;21.23;14.10;;;;;;;21.02;100.00;100902.31;8380441;28;20044;-61
2022/07/21 12:19:38;;;;;;;20.98;14.07;;;;;;;21.05;100.00;100901.91;8387448;28;20264;-61
2022/07/21 12:23:39;;;;;;;20.98;14.75;;;;;;;21.02;100.00;100892.16;8367651;28;20497;-61
2022/07/21 12:27:42;;;;;;;18.80;15.05;;;;;;;21.02;100.00;100894.06;8380734;28;20405;-60
2022/07/21 12:31:43;;;;;;;21.48;15.77;;;;;;;20.99;100.00;100902.72;8377138;28;20048;-61
2022/07/21 12:35:46;;;;;;;22.35;15.68;;;;;;;20.88;100.00;100895.81;8377986;28;20086;-61
2022/07/21 12:40:03;;;;;;;25.33;16.77;;;;;;;20.87;100.00;100912.50;8380810;28;20032;-61
2022/07/21 12:44:04;;;;;;;25.25;17.65;;;;;;;21.00;100.00;100904.41;8355665;28;20048;-61
2022/07/21 12:48:10;;;;;;;26.48;18.52;;;;;;;21.17;100.00;100897.56;8367630;28;20032;-61
2022/07/21 12:52:11;;;;;;;24.77;16.60;;;;;;;21.31;100.00;100907.59;8351934;28;20047;-61
2022/07/21 12:56:16;;;;;;;26.42;17.98;;;;;;;21.42;100.00;100907.06;8373001;28;20047;-61
2022/07/21 13:00:16;;;;;;;27.05;18.60;;;;;;;21.49;100.00;100907.09;8372990;28;20046;-61
2022/07/21 13:04:16;;;;;;;27.53;18.50;;;;;;;21.63;100.00;100906.13;8347953;28;20041;-61
2022/07/21 13:08:17;;;;;;;26.77;16.20;;;;;;;21.64;100.00;100897.69;8374501;28;20285;-61
2022/07/21 13:12:17;;;;;;;24.63;16.45;;;;;;;21.72;100.00;100900.28;8377772;28;20037;-61
2022/07/21 13:16:20;;;;;;;20.90;16.10;;;;;;;21.90;100.00;100897.00;8382235;28;20052;-61
2022/07/21 13:20:20;;;;;;;24.40;17.58;;;;;;;21.81;100.00;100912.84;8383053;28;20040;-61
2022/07/21 13:24:20;;;;;;;14.63;8.98;;;;;;;20.98;100.00;100917.50;8368735;28;20040;-61
2022/07/21 13:28:21;;;;;;;13.07;8.85;;;;;;;20.37;100.00;100924.44;8350287;28;20294;-61
2022/07/21 13:32:22;;;;;;;13.93;9.00;;;;;;;20.09;100.00;100917.94;8338031;28;20043;-61
2022/07/21 13:36:22;;;;;;;12.25;9.48;;;;;;;20.01;100.00;100922.69;8355897;28;20377;-61
2022/07/21 13:40:25;;;;;;;12.35;9.93;;;;;;;20.12;100.00;100924.94;8374350;28;20573;-61
2022/07/21 13:44:25;;;;;;;16.50;11.60;;;;;;;20.32;100.00;100923.34;8350225;28;20163;-61
2022/07/21 13:48:25;;;;;;;16.30;10.63;;;;;;;20.40;100.00;100929.56;8346558;28;20041;-61
2022/07/21 13:52:26;;;;;;;16.30;11.30;;;;;;;20.36;100.00;100930.13;8349758;28;20267;-61
2022/07/21 13:56:26;;;;;;;14.98;11.00;;;;;;;20.49;100.00;100927.56;8354075;28;20052;-61
2022/07/21 14:00:27;;;;;;;16.13;12.57;;;;;;;20.60;100.00;100930.63;8366545;28;20036;-61
2022/07/21 14:04:27;;;;;;;18.50;12.27;;;;;;;20.70;100.00;100935.78;8367990;28;20488;-61
2022/07/21 14:08:28;;;;;;;15.88;11.68;;;;;;;20.83;100.00;100934.03;8370578;28;20032;-61
2022/07/21 14:12:28;;;;;;;15.25;11.63;;;;;;;20.92;100.00;100929.28;8366813;28;20036;-61
2022/07/21 14:16:29;;;;;;;16.52;12.13;;;;;;;21.06;100.00;100936.59;8363109;28;20037;-61
2022/07/21 14:20:29;;;;;;;14.30;12.00;;;;;;;21.10;100.00;100937.91;8369007;28;20037;-61
2022/07/21 14:25:30;;;;;;;16.17;11.30;;;;;;;21.15;100.00;100938.16;8365428;28;20518;-61
2022/07/21 14:28:50;;;;;;;15.75;11.73;;;;;;;21.16;100.00;100945.34;8361646;28;20412;-61
2022/07/21 14:32:50;;;;;;;18.92;12.55;;;;;;;21.15;100.00;100950.03;8366330;28;20060;-61
2022/07/21 14:36:51;;;;;;;18.20;11.90;;;;;;;21.22;100.00;100952.81;8357543;28;20382;-61
2022/07/21 14:40:51;;;;;;;14.82;10.70;;;;;;;21.12;100.00;100952.31;8365042;28;20039;-61
2022/07/21 14:44:52;;;;;;;13.65;10.30;;;;;;;21.03;100.00;100962.59;8367561;28;20048;-61
2022/07/21 14:49:06;;;;;;;15.80;9.30;;;;;;;20.81;100.00;100962.78;8365059;28;20040;-61
2022/07/21 14:53:07;;;;;;;15.02;10.73;;;;;;;20.81;100.00;100965.53;8366444;28;20047;-61
2022/07/21 14:57:07;;;;;;;17.27;10.60;;;;;;;20.88;100.00;100960.94;8364178;28;20032;-61
2022/07/21 15:01:08;;;;;;;15.43;10.80;;;;;;;20.99;100.00;100960.44;8364419;28;20377;-61
2022/07/21 15:05:08;;;;;;;15.50;11.73;;;;;;;21.13;100.00;100951.25;8365808;28;20127;-61
2022/07/21 15:09:09;;;;;;;16.00;10.82;;;;;;;21.25;100.00;100952.41;8362702;28;20091;-61
2022/07/21 15:13:10;;;;;;;16.48;10.38;;;;;;;21.46;100.00;100957.06;8367429;28;20171;-61
2022/07/21 15:17:10;;;;;;;16.75;10.43;;;;;;;21.61;100.00;100952.25;8366288;28;20041;-61
2022/07/21 15:21:11;;;;;;;13.15;8.52;;;;;;;21.63;100.00;100956.53;8367498;28;20032;-61
2022/07/21 15:25:11;;;;;;;12.55;7.07;;;;;;;21.64;100.00;100958.22;8368747;28;20052;-61
2022/07/21 15:29:12;;;;;;;11.75;7.25;;;;;;;21.68;100.00;100959.53;8370311;28;20429;-61
2022/07/21 15:33:12;;;;;;;9.65;6.45;;;;;;;21.73;100.00;100957.03;8374961;28;20051;-61
2022/07/21 15:37:13;;;;;;;10.43;6.47;;;;;;;21.86;100.00;100951.63;8380287;28;20497;-61
2022/07/21 15:41:15;;;;;;;11.88;5.97;;;;;;;21.66;100.00;100961.66;8379151;28;20544;-61
2022/07/21 15:45:15;;;;;;;6.30;5.60;;;;;;;21.66;100.00;100961.66;8373302;28;20565;-61
2022/07/21 15:49:18;;;;;;;5.18;4.40;;;;;;;21.65;100.00;100962.66;8374171;28;20503;-61
2022/07/21 15:53:19;;;;;;;8.95;4.60;;;;;;;21.74;99.51;100960.66;8375889;28;20071;-61
2022/07/21 15:57:19;;;;;;;7.90;4.68;;;;;;;21.79;100.00;100963.66;8379853;28;20066;-61
2022/07/21 16:01:19;;;;;;;7.38;5.00;;;;;;;21.73;99.63;100962.53;8375069;28;20556;-60
2022/07/21 16:05:24;;;;;;;12.70;5.40;;;;;;;21.59;100.00;100960.72;8371847;28;20930;-60
2022/07/21 16:09:25;;;;;;;9.57;5.78;;;;;;;21.54;100.00;100960.50;8376951;28;20033;-60
2022/07/21 16:13:25;;;;;;;12.13;6.30;;;;;;;21.49;100.00;100965.75;8369889;28;20052;-60
2022/07/21 16:17:26;;;;;;;7.87;6.67;;;;;;;21.43;99.86;100961.03;8370124;28;20040;-60
2022/07/21 16:21:27;;;;;;;8.52;6.35;;;;;;;21.26;100.00;100954.13;8368193;28;20307;-60
2022/07/21 16:25:28;;;;;;;12.80;6.60;;;;;;;21.04;100.00;100955.19;8339495;28;20049;-60
2022/07/21 16:29:28;;;;;;;9.00;6.40;;;;;;;21.09;100.00;100958.22;8347672;28;20087;-60
2022/07/21 16:33:29;;;;;;;7.97;5.40;;;;;;;21.27;100.00;100961.34;8342055;28;20041;-60
2022/07/21 16:37:29;;;;;;;5.57;4.43;;;;;;;21.33;98.83;100966.03;8339615;28;20517;-60
2022/07/21 16:41:31;;;;;;;6.15;4.93;;;;;;;21.26;99.33;100962.41;8357584;28;20126;-60
2022/07/21 16:45:32;;;;;;;7.53;5.15;;;;;;;21.17;99.86;100960.84;8355760;28;20033;-60
2022/07/21 16:49:32;;;;;;;6.68;5.50;;;;;;;21.01;100.00;100966.56;8346776;28;20128;-60
2022/07/21 16:53:32;;;;;;;9.20;6.05;;;;;;;20.88;100.00;100972.78;8344691;28;20110;-59
2022/07/21 16:57:33;;;;;;;9.90;6.63;;;;;;;20.87;100.00;100970.22;8340754;28;20041;-60
2022/07/21 17:01:33;;;;;;;11.20;7.15;;;;;;;20.85;100.00;100977.81;8368987;28;20145;-61
2022/07/21 17:05:34;;;;;;;9.90;8.20;;;;;;;20.76;100.00;100984.47;8354448;28;20135;-61
2022/07/21 17:09:35;;;;;;;10.20;7.65;;;;;;;20.73;100.00;100973.88;8362830;28;20044;-61
2022/07/21 17:13:36;;;;;;;13.20;8.32;;;;;;;20.74;100.00;100984.69;8349320;28;20087;-60
2022/07/21 17:17:37;;;;;;;14.50;9.30;;;;;;;20.68;100.00;100984.63;8367235;28;20044;-60
2022/07/21 17:21:38;;;;;;;14.63;8.93;;;;;;;20.72;100.00;100983.19;8374135;28;20117;-60
2022/07/21 17:25:38;;;;;;;20.63;9.63;;;;;;;20.68;100.00;100981.88;8354492;28;20049;-60
2022/07/21 17:29:39;;;;;;;15.60;9.20;;;;;;;20.69;100.00;100989.94;8364282;28;20195;-60
2022/07/21 17:33:45;;;;;;;15.90;8.65;;;;;;;20.64;100.00;100991.53;8367255;28;20450;-60
2022/07/21 17:37:46;;;;;;;15.00;7.97;;;;;;;20.59;100.00;100989.34;8371946;28;20059;-60
2022/07/21 17:41:47;;;;;;;12.25;8.13;;;;;;;20.51;100.00;100996.88;8376744;28;20044;-60
2022/07/21 17:45:47;;;;;;;11.75;8.35;;;;;;;20.42;100.00;100998.03;8366314;28;20036;-60
2022/07/21 17:49:48;;;;;;;11.20;7.72;;;;;;;20.38;100.00;100999.47;8353858;28;20048;-61
2022/07/21 17:53:48;;;;;;;12.17;8.27;;;;;;;20.42;100.00;101006.28;8372937;28;20447;-61
2022/07/21 17:58:50;;;;;;;9.30;6.97;;;;;;;21.47;99.47;101009.09;8374976;28;21259;-61
2022/07/21 18:02:09;;;;;;;15.80;8.80;;;;;;;20.75;100.00;101015.78;8369652;28;20062;-61
2022/07/21 18:06:10;;;;;;;17.33;9.60;;;;;;;20.43;100.00;101011.56;8373796;28;20115;-61
2022/07/21 18:10:11;;;;;;;20.50;11.13;;;;;;;20.24;100.00;101005.81;8366795;28;20458;-61
2022/07/21 18:14:11;;;;;;;21.23;11.10;;;;;;;20.18;100.00;101012.94;8366283;28;20040;-61
2022/07/21 18:18:12;;;;;;;21.70;11.77;;;;;;;20.18;100.00;101012.06;8369015;28;20053;-61
2022/07/21 18:22:12;;;;;;;23.00;12.43;;;;;;;20.12;100.00;101013.69;8364868;28;20356;-61
2022/07/21 18:26:13;;;;;;;18.35;11.30;;;;;;;20.04;100.00;101021.16;8372020;28;20055;-61
2022/07/21 18:30:14;;;;;;;23.13;12.73;;;;;;;19.96;100.00;101022.09;8368031;28;20048;-61
2022/07/21 18:34:15;;;;;;;19.15;12.93;;;;;;;19.83;100.00;101029.28;8373318;28;20304;-61